sensor_id;sensor_type;location;lat;lon;timestamp;P1;durP1;ratioP1;P2;durP2;ratioP2
4214;SDS011;2121;48.062;7.850;2023-04-23T00:01:03;5.70;;;2.97;;
4214;SDS011;2121;48.062;7.850;2023-04-23T00:03:30;2.77;;;2.57;;
4214;SDS011;2121;48.062;7.850;2023-04-23T00:05:58;2.50;;;2.30;;
4214;SDS011;2121;48.062;7.850;2023-04-23T00:08:29;2.93;;;2.27;;
4214;SDS011;2121;48.062;7.850;2023-04-23T00:10:56;2.80;;;2.60;;
4214;SDS011;2121;48.062;7.850;2023-04-23T00:13:23;3.50;;;3.13;;
4214;SDS011;2121;48.062;7.850;2023-04-23T00:15:49;3.00;;;2.70;;
4214;SDS011;2121;48.062;7.850;2023-04-23T00:18:15;3.60;;;2.27;;
4214;SDS011;2121;48.062;7.850;2023-04-23T00:20:41;4.17;;;2.70;;
4214;SDS011;2121;48.062;7.850;2023-04-23T00:23:07;2.73;;;2.53;;
4214;SDS011;2121;48.062;7.850;2023-04-23T00:25:33;2.33;;;2.20;;
4214;SDS011;2121;48.062;7.850;2023-04-23T00:27:59;3.07;;;2.67;;
4214;SDS011;2121;48.062;7.850;2023-04-23T00:30:25;4.33;;;2.57;;
4214;SDS011;2121;48.062;7.850;2023-04-23T00:32:50;2.80;;;2.57;;
4214;SDS011;2121;48.062;7.850;2023-04-23T00:35:16;4.00;;;2.60;;
4214;SDS011;2121;48.062;7.850;2023-04-23T00:37:42;2.50;;;2.17;;
4214;SDS011;2121;48.062;7.850;2023-04-23T00:40:08;2.40;;;2.30;;
4214;SDS011;2121;48.062;7.850;2023-04-23T00:42:35;3.00;;;2.10;;
4214;SDS011;2121;48.062;7.850;2023-04-23T00:45:03;2.37;;;2.27;;
4214;SDS011;2121;48.062;7.850;2023-04-23T00:47:32;2.60;;;2.40;;
4214;SDS011;2121;48.062;7.850;2023-04-23T00:49:59;4.27;;;2.33;;
4214;SDS011;2121;48.062;7.850;2023-04-23T00:52:25;2.23;;;2.13;;
4214;SDS011;2121;48.062;7.850;2023-04-23T00:54:50;2.53;;;2.33;;
4214;SDS011;2121;48.062;7.850;2023-04-23T00:57:16;2.50;;;2.20;;
4214;SDS011;2121;48.062;7.850;2023-04-23T00:59:42;2.70;;;2.50;;
4214;SDS011;2121;48.062;7.850;2023-04-23T01:02:09;2.77;;;2.57;;
4214;SDS011;2121;48.062;7.850;2023-04-23T01:04:35;2.07;;;1.97;;
4214;SDS011;2121;48.062;7.850;2023-04-23T01:07:02;3.33;;;3.03;;
4214;SDS011;2121;48.062;7.850;2023-04-23T01:09:28;2.80;;;2.60;;
4214;SDS011;2121;48.062;7.850;2023-04-23T01:11:56;2.53;;;2.33;;
4214;SDS011;2121;48.062;7.850;2023-04-23T01:14:22;3.90;;;2.17;;
4214;SDS011;2121;48.062;7.850;2023-04-23T01:16:48;2.67;;;2.47;;
4214;SDS011;2121;48.062;7.850;2023-04-23T01:19:14;2.43;;;2.23;;
4214;SDS011;2121;48.062;7.850;2023-04-23T01:21:40;2.80;;;2.53;;
4214;SDS011;2121;48.062;7.850;2023-04-23T01:24:06;3.03;;;2.30;;
4214;SDS011;2121;48.062;7.850;2023-04-23T01:26:33;2.63;;;2.47;;
4214;SDS011;2121;48.062;7.850;2023-04-23T01:29:00;2.40;;;2.20;;
4214;SDS011;2121;48.062;7.850;2023-04-23T01:31:27;2.00;;;1.90;;
4214;SDS011;2121;48.062;7.850;2023-04-23T01:33:53;2.27;;;2.17;;
4214;SDS011;2121;48.062;7.850;2023-04-23T01:36:21;2.30;;;2.20;;
4214;SDS011;2121;48.062;7.850;2023-04-23T01:38:51;2.37;;;2.20;;
4214;SDS011;2121;48.062;7.850;2023-04-23T01:41:17;2.30;;;2.10;;
4214;SDS011;2121;48.062;7.850;2023-04-23T01:43:44;2.50;;;2.07;;
4214;SDS011;2121;48.062;7.850;2023-04-23T01:46:10;2.40;;;2.30;;
4214;SDS011;2121;48.062;7.850;2023-04-23T01:48:37;2.03;;;1.80;;
4214;SDS011;2121;48.062;7.850;2023-04-23T01:51:03;1.70;;;1.60;;
4214;SDS011;2121;48.062;7.850;2023-04-23T01:53:29;1.80;;;1.70;;
4214;SDS011;2121;48.062;7.850;2023-04-23T01:55:55;2.30;;;2.13;;
4214;SDS011;2121;48.062;7.850;2023-04-23T01:58:21;7.60;;;1.97;;
4214;SDS011;2121;48.062;7.850;2023-04-23T02:00:48;2.27;;;2.07;;
4214;SDS011;2121;48.062;7.850;2023-04-23T02:03:14;1.80;;;1.70;;
4214;SDS011;2121;48.062;7.850;2023-04-23T02:05:40;1.80;;;1.70;;
4214;SDS011;2121;48.062;7.850;2023-04-23T02:08:07;1.70;;;1.60;;
4214;SDS011;2121;48.062;7.850;2023-04-23T02:10:34;3.30;;;1.50;;
4214;SDS011;2121;48.062;7.850;2023-04-23T02:13:00;2.20;;;1.57;;
4214;SDS011;2121;48.062;7.850;2023-04-23T02:15:26;1.80;;;1.70;;
4214;SDS011;2121;48.062;7.850;2023-04-23T02:17:53;1.70;;;1.60;;
4214;SDS011;2121;48.062;7.850;2023-04-23T02:20:19;1.70;;;1.60;;
4214;SDS011;2121;48.062;7.850;2023-04-23T02:22:46;1.83;;;1.73;;
4214;SDS011;2121;48.062;7.850;2023-04-23T02:25:13;1.47;;;1.37;;
4214;SDS011;2121;48.062;7.850;2023-04-23T02:27:41;1.50;;;1.40;;
4214;SDS011;2121;48.062;7.850;2023-04-23T02:30:07;1.60;;;1.50;;
4214;SDS011;2121;48.062;7.850;2023-04-23T02:32:35;1.60;;;1.50;;
4214;SDS011;2121;48.062;7.850;2023-04-23T02:35:02;2.60;;;2.10;;
4214;SDS011;2121;48.062;7.850;2023-04-23T02:37:31;2.00;;;1.50;;
4214;SDS011;2121;48.062;7.850;2023-04-23T02:39:57;2.07;;;1.70;;
4214;SDS011;2121;48.062;7.850;2023-04-23T02:42:23;1.50;;;1.40;;
4214;SDS011;2121;48.062;7.850;2023-04-23T02:44:50;1.40;;;1.40;;
4214;SDS011;2121;48.062;7.850;2023-04-23T02:47:15;1.53;;;1.43;;
4214;SDS011;2121;48.062;7.850;2023-04-23T02:49:41;1.60;;;1.50;;
4214;SDS011;2121;48.062;7.850;2023-04-23T02:52:07;1.47;;;1.47;;
4214;SDS011;2121;48.062;7.850;2023-04-23T02:54:32;1.57;;;1.47;;
4214;SDS011;2121;48.062;7.850;2023-04-23T02:56:58;1.30;;;1.30;;
4214;SDS011;2121;48.062;7.850;2023-04-23T02:59:24;2.70;;;1.30;;
4214;SDS011;2121;48.062;7.850;2023-04-23T03:01:50;1.43;;;1.33;;
4214;SDS011;2121;48.062;7.850;2023-04-23T03:04:16;1.93;;;1.83;;
4214;SDS011;2121;48.062;7.850;2023-04-23T03:06:42;1.20;;;1.20;;
4214;SDS011;2121;48.062;7.850;2023-04-23T03:09:08;1.70;;;1.60;;
4214;SDS011;2121;48.062;7.850;2023-04-23T03:11:33;1.87;;;1.30;;
4214;SDS011;2121;48.062;7.850;2023-04-23T03:13:59;6.83;;;1.57;;
4214;SDS011;2121;48.062;7.850;2023-04-23T03:16:28;1.43;;;1.30;;
4214;SDS011;2121;48.062;7.850;2023-04-23T03:18:55;1.90;;;1.47;;
4214;SDS011;2121;48.062;7.850;2023-04-23T03:21:21;1.50;;;1.40;;
4214;SDS011;2121;48.062;7.850;2023-04-23T03:23:47;3.40;;;1.40;;
4214;SDS011;2121;48.062;7.850;2023-04-23T03:26:13;1.37;;;1.30;;
4214;SDS011;2121;48.062;7.850;2023-04-23T03:28:39;1.50;;;1.40;;
4214;SDS011;2121;48.062;7.850;2023-04-23T03:31:04;1.93;;;1.50;;
4214;SDS011;2121;48.062;7.850;2023-04-23T03:33:30;4.00;;;1.33;;
4214;SDS011;2121;48.062;7.850;2023-04-23T03:35:56;1.30;;;1.30;;
4214;SDS011;2121;48.062;7.850;2023-04-23T03:38:22;2.60;;;1.60;;
4214;SDS011;2121;48.062;7.850;2023-04-23T03:40:48;3.07;;;1.83;;
4214;SDS011;2121;48.062;7.850;2023-04-23T03:43:13;1.30;;;1.30;;
4214;SDS011;2121;48.062;7.850;2023-04-23T03:45:39;1.30;;;1.30;;
4214;SDS011;2121;48.062;7.850;2023-04-23T03:48:05;1.33;;;1.23;;
4214;SDS011;2121;48.062;7.850;2023-04-23T03:50:31;1.77;;;1.67;;
4214;SDS011;2121;48.062;7.850;2023-04-23T03:52:59;5.10;;;1.43;;
4214;SDS011;2121;48.062;7.850;2023-04-23T03:55:25;1.43;;;1.33;;
4214;SDS011;2121;48.062;7.850;2023-04-23T03:57:51;1.57;;;1.47;;
4214;SDS011;2121;48.062;7.850;2023-04-23T04:00:17;2.10;;;1.60;;
4214;SDS011;2121;48.062;7.850;2023-04-23T04:02:42;1.20;;;1.20;;
4214;SDS011;2121;48.062;7.850;2023-04-23T04:05:08;1.37;;;1.27;;
4214;SDS011;2121;48.062;7.850;2023-04-23T04:07:37;1.40;;;1.40;;
4214;SDS011;2121;48.062;7.850;2023-04-23T04:10:04;1.50;;;1.40;;
4214;SDS011;2121;48.062;7.850;2023-04-23T04:12:31;1.40;;;1.30;;
4214;SDS011;2121;48.062;7.850;2023-04-23T04:14:56;1.20;;;1.20;;
4214;SDS011;2121;48.062;7.850;2023-04-23T04:17:22;1.70;;;1.60;;
4214;SDS011;2121;48.062;7.850;2023-04-23T04:19:48;2.07;;;1.50;;
4214;SDS011;2121;48.062;7.850;2023-04-23T04:22:13;1.70;;;1.60;;
4214;SDS011;2121;48.062;7.850;2023-04-23T04:24:40;2.03;;;1.93;;
4214;SDS011;2121;48.062;7.850;2023-04-23T04:27:06;1.50;;;1.40;;
4214;SDS011;2121;48.062;7.850;2023-04-23T04:29:33;3.60;;;1.37;;
4214;SDS011;2121;48.062;7.850;2023-04-23T04:31:58;1.33;;;1.27;;
4214;SDS011;2121;48.062;7.850;2023-04-23T04:34:25;1.30;;;1.30;;
4214;SDS011;2121;48.062;7.850;2023-04-23T04:36:51;4.00;;;1.93;;
4214;SDS011;2121;48.062;7.850;2023-04-23T04:39:18;2.30;;;1.70;;
4214;SDS011;2121;48.062;7.850;2023-04-23T04:41:44;3.23;;;1.60;;
4214;SDS011;2121;48.062;7.850;2023-04-23T04:44:10;1.37;;;1.27;;
4214;SDS011;2121;48.062;7.850;2023-04-23T04:46:38;1.17;;;1.17;;
4214;SDS011;2121;48.062;7.850;2023-04-23T04:49:07;1.33;;;1.30;;
4214;SDS011;2121;48.062;7.850;2023-04-23T04:51:36;2.30;;;1.40;;
4214;SDS011;2121;48.062;7.850;2023-04-23T04:54:03;1.27;;;1.27;;
4214;SDS011;2121;48.062;7.850;2023-04-23T04:56:30;1.50;;;1.40;;
4214;SDS011;2121;48.062;7.850;2023-04-23T04:58:56;1.57;;;1.47;;
4214;SDS011;2121;48.062;7.850;2023-04-23T05:01:21;1.60;;;1.50;;
4214;SDS011;2121;48.062;7.850;2023-04-23T05:03:50;1.50;;;1.40;;
4214;SDS011;2121;48.062;7.850;2023-04-23T05:06:17;1.83;;;1.73;;
4214;SDS011;2121;48.062;7.850;2023-04-23T05:08:43;1.73;;;1.30;;
4214;SDS011;2121;48.062;7.850;2023-04-23T05:11:12;2.07;;;1.87;;
4214;SDS011;2121;48.062;7.850;2023-04-23T05:13:40;2.70;;;1.67;;
4214;SDS011;2121;48.062;7.850;2023-04-23T05:16:06;1.30;;;1.20;;
4214;SDS011;2121;48.062;7.850;2023-04-23T05:18:32;1.27;;;1.27;;
4214;SDS011;2121;48.062;7.850;2023-04-23T05:20:57;1.57;;;1.47;;
4214;SDS011;2121;48.062;7.850;2023-04-23T05:23:23;1.33;;;1.23;;
4214;SDS011;2121;48.062;7.850;2023-04-23T05:25:49;1.40;;;1.40;;
4214;SDS011;2121;48.062;7.850;2023-04-23T05:28:17;2.80;;;1.43;;
4214;SDS011;2121;48.062;7.850;2023-04-23T05:30:42;1.57;;;1.47;;
4214;SDS011;2121;48.062;7.850;2023-04-23T05:33:08;1.60;;;1.50;;
4214;SDS011;2121;48.062;7.850;2023-04-23T05:35:36;2.70;;;2.50;;
4214;SDS011;2121;48.062;7.850;2023-04-23T05:38:02;2.67;;;2.47;;
4214;SDS011;2121;48.062;7.850;2023-04-23T05:40:29;2.33;;;2.13;;
4214;SDS011;2121;48.062;7.850;2023-04-23T05:42:56;2.50;;;2.30;;
4214;SDS011;2121;48.062;7.850;2023-04-23T05:45:23;1.83;;;1.73;;
4214;SDS011;2121;48.062;7.850;2023-04-23T05:47:49;2.80;;;2.03;;
4214;SDS011;2121;48.062;7.850;2023-04-23T05:50:16;1.93;;;1.80;;
4214;SDS011;2121;48.062;7.850;2023-04-23T05:52:42;2.23;;;1.87;;
4214;SDS011;2121;48.062;7.850;2023-04-23T05:55:08;2.00;;;1.80;;
4214;SDS011;2121;48.062;7.850;2023-04-23T05:57:37;1.80;;;1.70;;
4214;SDS011;2121;48.062;7.850;2023-04-23T06:00:03;1.80;;;1.70;;
4214;SDS011;2121;48.062;7.850;2023-04-23T06:02:33;1.90;;;1.80;;
4214;SDS011;2121;48.062;7.850;2023-04-23T06:04:59;3.30;;;2.30;;
4214;SDS011;2121;48.062;7.850;2023-04-23T06:07:25;6.30;;;4.73;;
4214;SDS011;2121;48.062;7.850;2023-04-23T06:09:51;13.20;;;8.93;;
4214;SDS011;2121;48.062;7.850;2023-04-23T06:12:17;5.67;;;4.30;;
4214;SDS011;2121;48.062;7.850;2023-04-23T06:14:42;2.63;;;2.43;;
4214;SDS011;2121;48.062;7.850;2023-04-23T06:17:08;2.60;;;2.30;;
4214;SDS011;2121;48.062;7.850;2023-04-23T06:19:34;2.47;;;2.27;;
4214;SDS011;2121;48.062;7.850;2023-04-23T06:22:00;5.40;;;1.93;;
4214;SDS011;2121;48.062;7.850;2023-04-23T06:24:26;2.87;;;2.60;;
4214;SDS011;2121;48.062;7.850;2023-04-23T06:26:51;1.73;;;1.63;;
4214;SDS011;2121;48.062;7.850;2023-04-23T06:29:17;1.80;;;1.70;;
4214;SDS011;2121;48.062;7.850;2023-04-23T06:31:43;16.23;;;1.93;;
4214;SDS011;2121;48.062;7.850;2023-04-23T06:34:08;2.13;;;1.93;;
4214;SDS011;2121;48.062;7.850;2023-04-23T06:36:34;1.90;;;1.80;;
4214;SDS011;2121;48.062;7.850;2023-04-23T06:39:00;1.77;;;1.67;;
4214;SDS011;2121;48.062;7.850;2023-04-23T06:41:25;2.10;;;2.00;;
4214;SDS011;2121;48.062;7.850;2023-04-23T06:43:51;1.97;;;1.87;;
4214;SDS011;2121;48.062;7.850;2023-04-23T06:46:17;2.17;;;2.07;;
4214;SDS011;2121;48.062;7.850;2023-04-23T06:48:43;3.17;;;2.13;;
4214;SDS011;2121;48.062;7.850;2023-04-23T06:51:09;1.80;;;1.70;;
4214;SDS011;2121;48.062;7.850;2023-04-23T06:53:36;2.27;;;2.13;;
4214;SDS011;2121;48.062;7.850;2023-04-23T06:56:02;2.13;;;2.00;;
4214;SDS011;2121;48.062;7.850;2023-04-23T06:58:27;2.20;;;2.10;;
4214;SDS011;2121;48.062;7.850;2023-04-23T07:01:00;1.90;;;1.80;;
4214;SDS011;2121;48.062;7.850;2023-04-23T07:03:29;2.63;;;2.43;;
4214;SDS011;2121;48.062;7.850;2023-04-23T07:05:58;3.13;;;2.20;;
4214;SDS011;2121;48.062;7.850;2023-04-23T07:08:24;1.80;;;1.70;;
4214;SDS011;2121;48.062;7.850;2023-04-23T07:10:50;1.60;;;1.50;;
4214;SDS011;2121;48.062;7.850;2023-04-23T07:13:17;1.90;;;1.80;;
4214;SDS011;2121;48.062;7.850;2023-04-23T07:15:43;2.10;;;2.00;;
4214;SDS011;2121;48.062;7.850;2023-04-23T07:18:09;1.80;;;1.70;;
4214;SDS011;2121;48.062;7.850;2023-04-23T07:20:34;2.30;;;2.20;;
4214;SDS011;2121;48.062;7.850;2023-04-23T07:23:00;2.30;;;2.17;;
4214;SDS011;2121;48.062;7.850;2023-04-23T07:25:28;2.40;;;1.80;;
4214;SDS011;2121;48.062;7.850;2023-04-23T07:27:55;1.57;;;1.47;;
4214;SDS011;2121;48.062;7.850;2023-04-23T07:30:21;2.20;;;2.10;;
4214;SDS011;2121;48.062;7.850;2023-04-23T07:32:48;1.97;;;1.50;;
4214;SDS011;2121;48.062;7.850;2023-04-23T07:35:14;2.00;;;1.90;;
4214;SDS011;2121;48.062;7.850;2023-04-23T07:37:40;2.23;;;1.80;;
4214;SDS011;2121;48.062;7.850;2023-04-23T07:40:06;2.03;;;1.80;;
4214;SDS011;2121;48.062;7.850;2023-04-23T07:42:33;2.00;;;1.90;;
4214;SDS011;2121;48.062;7.850;2023-04-23T07:44:58;1.73;;;1.63;;
4214;SDS011;2121;48.062;7.850;2023-04-23T07:47:24;2.33;;;2.23;;
4214;SDS011;2121;48.062;7.850;2023-04-23T07:49:50;2.60;;;2.30;;
4214;SDS011;2121;48.062;7.850;2023-04-23T07:52:16;2.03;;;1.83;;
4214;SDS011;2121;48.062;7.850;2023-04-23T07:54:42;2.47;;;2.10;;
4214;SDS011;2121;48.062;7.850;2023-04-23T07:57:08;1.80;;;1.70;;
4214;SDS011;2121;48.062;7.850;2023-04-23T07:59:35;5.47;;;2.20;;
4214;SDS011;2121;48.062;7.850;2023-04-23T08:02:03;2.23;;;1.90;;
4214;SDS011;2121;48.062;7.850;2023-04-23T08:04:29;2.00;;;1.90;;
4214;SDS011;2121;48.062;7.850;2023-04-23T08:06:55;2.30;;;2.10;;
4214;SDS011;2121;48.062;7.850;2023-04-23T08:09:21;2.03;;;1.90;;
4214;SDS011;2121;48.062;7.850;2023-04-23T08:11:46;2.50;;;2.40;;
4214;SDS011;2121;48.062;7.850;2023-04-23T08:14:12;2.60;;;1.70;;
4214;SDS011;2121;48.062;7.850;2023-04-23T08:16:38;2.00;;;1.90;;
4214;SDS011;2121;48.062;7.850;2023-04-23T08:19:04;2.40;;;2.00;;
4214;SDS011;2121;48.062;7.850;2023-04-23T08:21:30;2.40;;;2.20;;
4214;SDS011;2121;48.062;7.850;2023-04-23T08:23:57;2.60;;;2.40;;
4214;SDS011;2121;48.062;7.850;2023-04-23T08:26:23;2.03;;;1.93;;
4214;SDS011;2121;48.062;7.850;2023-04-23T08:28:49;2.07;;;1.87;;
4214;SDS011;2121;48.062;7.850;2023-04-23T08:31:14;2.40;;;1.90;;
4214;SDS011;2121;48.062;7.850;2023-04-23T08:33:41;2.63;;;2.53;;
4214;SDS011;2121;48.062;7.850;2023-04-23T08:36:07;1.90;;;1.80;;
4214;SDS011;2121;48.062;7.850;2023-04-23T08:38:33;3.53;;;2.17;;
4214;SDS011;2121;48.062;7.850;2023-04-23T08:40:59;2.00;;;1.90;;
4214;SDS011;2121;48.062;7.850;2023-04-23T08:43:37;6.80;;;1.60;;
4214;SDS011;2121;48.062;7.850;2023-04-23T08:46:11;3.00;;;1.80;;
4214;SDS011;2121;48.062;7.850;2023-04-23T08:48:39;1.80;;;1.70;;
4214;SDS011;2121;48.062;7.850;2023-04-23T08:51:07;2.77;;;2.50;;
4214;SDS011;2121;48.062;7.850;2023-04-23T08:53:35;2.00;;;1.90;;
4214;SDS011;2121;48.062;7.850;2023-04-23T08:56:02;2.00;;;1.90;;
4214;SDS011;2121;48.062;7.850;2023-04-23T08:58:30;1.90;;;1.80;;
4214;SDS011;2121;48.062;7.850;2023-04-23T09:00:56;2.03;;;1.83;;
4214;SDS011;2121;48.062;7.850;2023-04-23T09:03:22;2.43;;;1.53;;
4214;SDS011;2121;48.062;7.850;2023-04-23T09:05:50;2.23;;;2.03;;
4214;SDS011;2121;48.062;7.850;2023-04-23T09:08:18;1.90;;;1.80;;
4214;SDS011;2121;48.062;7.850;2023-04-23T09:10:45;1.70;;;1.60;;
4214;SDS011;2121;48.062;7.850;2023-04-23T09:13:11;1.50;;;1.50;;
4214;SDS011;2121;48.062;7.850;2023-04-23T09:15:40;1.93;;;1.83;;
4214;SDS011;2121;48.062;7.850;2023-04-23T09:18:09;2.07;;;1.90;;
4214;SDS011;2121;48.062;7.850;2023-04-23T09:20:35;1.80;;;1.70;;
4214;SDS011;2121;48.062;7.850;2023-04-23T09:23:05;1.60;;;1.50;;
4214;SDS011;2121;48.062;7.850;2023-04-23T09:25:32;1.90;;;1.80;;
4214;SDS011;2121;48.062;7.850;2023-04-23T09:27:58;2.03;;;1.87;;
4214;SDS011;2121;48.062;7.850;2023-04-23T09:30:25;1.80;;;1.70;;
4214;SDS011;2121;48.062;7.850;2023-04-23T09:32:53;2.60;;;1.50;;
4214;SDS011;2121;48.062;7.850;2023-04-23T09:35:19;1.50;;;1.40;;
4214;SDS011;2121;48.062;7.850;2023-04-23T09:37:45;1.70;;;1.60;;
4214;SDS011;2121;48.062;7.850;2023-04-23T09:40:14;1.60;;;1.50;;
4214;SDS011;2121;48.062;7.850;2023-04-23T09:42:46;2.10;;;2.00;;
4214;SDS011;2121;48.062;7.850;2023-04-23T09:45:18;1.60;;;1.50;;
4214;SDS011;2121;48.062;7.850;2023-04-23T09:47:49;3.37;;;1.60;;
4214;SDS011;2121;48.062;7.850;2023-04-23T09:50:18;2.60;;;2.40;;
4214;SDS011;2121;48.062;7.850;2023-04-23T09:53:06;1.53;;;1.40;;
4214;SDS011;2121;48.062;7.850;2023-04-23T09:55:34;1.63;;;1.53;;
4214;SDS011;2121;48.062;7.850;2023-04-23T09:58:10;2.03;;;1.70;;
4214;SDS011;2121;48.062;7.850;2023-04-23T10:00:39;2.00;;;1.47;;
4214;SDS011;2121;48.062;7.850;2023-04-23T10:03:05;3.20;;;1.40;;
4214;SDS011;2121;48.062;7.850;2023-04-23T10:05:36;1.70;;;1.60;;
4214;SDS011;2121;48.062;7.850;2023-04-23T10:08:05;1.70;;;1.60;;
4214;SDS011;2121;48.062;7.850;2023-04-23T10:10:31;1.87;;;1.77;;
4214;SDS011;2121;48.062;7.850;2023-04-23T10:12:59;1.50;;;1.40;;
4214;SDS011;2121;48.062;7.850;2023-04-23T10:15:25;1.77;;;1.67;;
4214;SDS011;2121;48.062;7.850;2023-04-23T10:17:52;1.93;;;1.83;;
4214;SDS011;2121;48.062;7.850;2023-04-23T10:20:19;1.63;;;1.53;;
4214;SDS011;2121;48.062;7.850;2023-04-23T10:22:47;1.50;;;1.30;;
4214;SDS011;2121;48.062;7.850;2023-04-23T10:25:14;1.70;;;1.60;;
4214;SDS011;2121;48.062;7.850;2023-04-23T10:27:43;1.63;;;1.40;;
4214;SDS011;2121;48.062;7.850;2023-04-23T10:30:12;2.20;;;1.40;;
4214;SDS011;2121;48.062;7.850;2023-04-23T10:32:38;4.00;;;1.70;;
4214;SDS011;2121;48.062;7.850;2023-04-23T10:35:05;1.50;;;1.40;;
4214;SDS011;2121;48.062;7.850;2023-04-23T10:37:33;1.83;;;1.53;;
4214;SDS011;2121;48.062;7.850;2023-04-23T10:40:07;5.23;;;1.90;;
4214;SDS011;2121;48.062;7.850;2023-04-23T10:42:38;2.13;;;2.03;;
4214;SDS011;2121;48.062;7.850;2023-04-23T10:45:15;1.33;;;1.33;;
4214;SDS011;2121;48.062;7.850;2023-04-23T10:47:43;1.50;;;1.40;;
4214;SDS011;2121;48.062;7.850;2023-04-23T10:50:43;1.70;;;1.60;;
4214;SDS011;2121;48.062;7.850;2023-04-23T10:53:02;1.43;;;1.30;;
4214;SDS011;2121;48.062;7.850;2023-04-23T10:55:30;3.73;;;1.73;;
4214;SDS011;2121;48.062;7.850;2023-04-23T10:58:01;1.50;;;1.50;;
4214;SDS011;2121;48.062;7.850;2023-04-23T11:06:06;1.63;;;1.53;;
4214;SDS011;2121;48.062;7.850;2023-04-23T11:08:35;2.30;;;1.60;;
4214;SDS011;2121;48.062;7.850;2023-04-23T11:11:06;1.40;;;1.40;;
4214;SDS011;2121;48.062;7.850;2023-04-23T11:13:33;1.77;;;1.67;;
4214;SDS011;2121;48.062;7.850;2023-04-23T11:16:11;1.83;;;1.53;;
4214;SDS011;2121;48.062;7.850;2023-04-23T11:18:57;2.83;;;1.57;;
4214;SDS011;2121;48.062;7.850;2023-04-23T11:24:36;1.70;;;1.60;;
4214;SDS011;2121;48.062;7.850;2023-04-23T11:27:16;1.70;;;1.60;;
4214;SDS011;2121;48.062;7.850;2023-04-23T11:29:44;2.17;;;1.77;;
4214;SDS011;2121;48.062;7.850;2023-04-23T11:32:11;1.50;;;1.40;;
4214;SDS011;2121;48.062;7.850;2023-04-23T11:34:43;1.40;;;1.30;;
4214;SDS011;2121;48.062;7.850;2023-04-23T11:37:11;1.63;;;1.50;;
4214;SDS011;2121;48.062;7.850;2023-04-23T11:39:42;3.00;;;1.47;;
4214;SDS011;2121;48.062;7.850;2023-04-23T11:42:14;1.30;;;1.30;;
4214;SDS011;2121;48.062;7.850;2023-04-23T11:44:41;1.53;;;1.47;;
4214;SDS011;2121;48.062;7.850;2023-04-23T11:47:09;1.80;;;1.70;;
4214;SDS011;2121;48.062;7.850;2023-04-23T11:49:43;1.40;;;1.30;;
4214;SDS011;2121;48.062;7.850;2023-04-23T11:52:09;2.07;;;1.50;;
4214;SDS011;2121;48.062;7.850;2023-04-23T11:54:38;2.33;;;1.53;;
4214;SDS011;2121;48.062;7.850;2023-04-23T11:57:05;1.73;;;1.60;;
4214;SDS011;2121;48.062;7.850;2023-04-23T11:59:32;1.70;;;1.60;;
4214;SDS011;2121;48.062;7.850;2023-04-23T12:01:58;1.43;;;1.40;;
4214;SDS011;2121;48.062;7.850;2023-04-23T12:06:53;1.80;;;1.70;;
4214;SDS011;2121;48.062;7.850;2023-04-23T12:09:20;1.63;;;1.53;;
4214;SDS011;2121;48.062;7.850;2023-04-23T12:11:48;2.63;;;1.57;;
4214;SDS011;2121;48.062;7.850;2023-04-23T12:14:15;2.00;;;1.90;;
4214;SDS011;2121;48.062;7.850;2023-04-23T12:16:43;1.50;;;1.40;;
4214;SDS011;2121;48.062;7.850;2023-04-23T12:19:18;1.40;;;1.40;;
4214;SDS011;2121;48.062;7.850;2023-04-23T12:21:53;2.67;;;2.00;;
4214;SDS011;2121;48.062;7.850;2023-04-23T12:24:28;1.70;;;1.60;;
4214;SDS011;2121;48.062;7.850;2023-04-23T12:26:56;2.20;;;2.00;;
4214;SDS011;2121;48.062;7.850;2023-04-23T12:29:27;1.60;;;1.50;;
4214;SDS011;2121;48.062;7.850;2023-04-23T12:31:56;2.00;;;1.80;;
4214;SDS011;2121;48.062;7.850;2023-04-23T12:34:24;1.73;;;1.30;;
4214;SDS011;2121;48.062;7.850;2023-04-23T12:36:50;2.23;;;1.90;;
4214;SDS011;2121;48.062;7.850;2023-04-23T12:41:52;1.43;;;1.33;;
4214;SDS011;2121;48.062;7.850;2023-04-23T12:44:26;6.03;;;1.87;;
4214;SDS011;2121;48.062;7.850;2023-04-23T12:47:11;2.93;;;1.60;;
4214;SDS011;2121;48.062;7.850;2023-04-23T12:49:39;1.63;;;1.53;;
4214;SDS011;2121;48.062;7.850;2023-04-23T12:52:07;1.97;;;1.77;;
4214;SDS011;2121;48.062;7.850;2023-04-23T12:54:33;1.73;;;1.63;;
4214;SDS011;2121;48.062;7.850;2023-04-23T12:57:02;4.72;;;1.95;;
4214;SDS011;2121;48.062;7.850;2023-04-23T12:59:32;3.42;;;1.55;;
4214;SDS011;2121;48.062;7.850;2023-04-23T13:01:58;1.75;;;1.65;;
4214;SDS011;2121;48.062;7.850;2023-04-23T13:04:28;3.67;;;1.77;;
4214;SDS011;2121;48.062;7.850;2023-04-23T13:06:56;3.97;;;1.80;;
4214;SDS011;2121;48.062;7.850;2023-04-23T13:09:22;2.35;;;1.67;;
4214;SDS011;2121;48.062;7.850;2023-04-23T13:11:49;1.70;;;1.60;;
4214;SDS011;2121;48.062;7.850;2023-04-23T13:14:15;1.93;;;1.70;;
4214;SDS011;2121;48.062;7.850;2023-04-23T13:16:41;4.40;;;1.73;;
4214;SDS011;2121;48.062;7.850;2023-04-23T13:19:07;2.00;;;1.80;;
4214;SDS011;2121;48.062;7.850;2023-04-23T13:21:34;2.30;;;1.67;;
4214;SDS011;2121;48.062;7.850;2023-04-23T13:24:00;2.97;;;1.77;;
4214;SDS011;2121;48.062;7.850;2023-04-23T13:26:26;2.83;;;1.33;;
4214;SDS011;2121;48.062;7.850;2023-04-23T13:28:59;2.50;;;1.83;;
4214;SDS011;2121;48.062;7.850;2023-04-23T13:31:25;4.63;;;1.87;;
4214;SDS011;2121;48.062;7.850;2023-04-23T13:33:52;3.00;;;1.87;;
4214;SDS011;2121;48.062;7.850;2023-04-23T13:36:18;3.20;;;1.73;;
4214;SDS011;2121;48.062;7.850;2023-04-23T13:38:44;2.40;;;1.90;;
4214;SDS011;2121;48.062;7.850;2023-04-23T13:41:11;10.30;;;2.40;;
4214;SDS011;2121;48.062;7.850;2023-04-23T13:43:37;2.00;;;1.77;;
4214;SDS011;2121;48.062;7.850;2023-04-23T13:46:03;2.13;;;1.93;;
4214;SDS011;2121;48.062;7.850;2023-04-23T13:48:30;1.80;;;1.70;;
4214;SDS011;2121;48.062;7.850;2023-04-23T13:50:57;1.93;;;1.60;;
4214;SDS011;2121;48.062;7.850;2023-04-23T13:53:24;2.17;;;1.50;;
4214;SDS011;2121;48.062;7.850;2023-04-23T13:55:50;1.53;;;1.43;;
4214;SDS011;2121;48.062;7.850;2023-04-23T13:58:16;2.40;;;1.30;;
4214;SDS011;2121;48.062;7.850;2023-04-23T14:00:42;1.67;;;1.60;;
4214;SDS011;2121;48.062;7.850;2023-04-23T14:03:08;1.53;;;1.43;;
4214;SDS011;2121;48.062;7.850;2023-04-23T14:05:34;2.00;;;1.90;;
4214;SDS011;2121;48.062;7.850;2023-04-23T14:08:00;1.80;;;1.70;;
4214;SDS011;2121;48.062;7.850;2023-04-23T14:10:26;6.77;;;2.27;;
4214;SDS011;2121;48.062;7.850;2023-04-23T14:12:52;1.70;;;1.50;;
4214;SDS011;2121;48.062;7.850;2023-04-23T14:15:19;1.60;;;1.50;;
4214;SDS011;2121;48.062;7.850;2023-04-23T14:17:46;2.60;;;2.30;;
4214;SDS011;2121;48.062;7.850;2023-04-23T14:20:12;1.60;;;1.50;;
4214;SDS011;2121;48.062;7.850;2023-04-23T14:22:39;1.93;;;1.83;;
4214;SDS011;2121;48.062;7.850;2023-04-23T14:25:13;1.90;;;1.70;;
4214;SDS011;2121;48.062;7.850;2023-04-23T14:27:49;1.97;;;1.70;;
4214;SDS011;2121;48.062;7.850;2023-04-23T14:30:17;1.57;;;1.47;;
4214;SDS011;2121;48.062;7.850;2023-04-23T14:32:44;2.23;;;1.50;;
4214;SDS011;2121;48.062;7.850;2023-04-23T14:35:14;2.20;;;1.53;;
4214;SDS011;2121;48.062;7.850;2023-04-23T14:37:43;2.03;;;1.80;;
4214;SDS011;2121;48.062;7.850;2023-04-23T14:40:10;2.97;;;2.03;;
4214;SDS011;2121;48.062;7.850;2023-04-23T14:42:39;7.37;;;1.90;;
4214;SDS011;2121;48.062;7.850;2023-04-23T14:45:05;2.10;;;2.00;;
4214;SDS011;2121;48.062;7.850;2023-04-23T14:47:32;2.93;;;2.73;;
4214;SDS011;2121;48.062;7.850;2023-04-23T14:49:57;2.23;;;2.13;;
4214;SDS011;2121;48.062;7.850;2023-04-23T14:52:25;1.90;;;1.80;;
4214;SDS011;2121;48.062;7.850;2023-04-23T14:54:51;1.77;;;1.67;;
4214;SDS011;2121;48.062;7.850;2023-04-23T14:57:19;3.37;;;1.87;;
4214;SDS011;2121;48.062;7.850;2023-04-23T14:59:46;2.00;;;1.77;;
4214;SDS011;2121;48.062;7.850;2023-04-23T15:02:11;2.37;;;1.90;;
4214;SDS011;2121;48.062;7.850;2023-04-23T15:04:37;3.43;;;2.23;;
4214;SDS011;2121;48.062;7.850;2023-04-23T15:07:03;1.83;;;1.73;;
4214;SDS011;2121;48.062;7.850;2023-04-23T15:09:29;2.23;;;1.80;;
4214;SDS011;2121;48.062;7.850;2023-04-23T15:11:55;1.90;;;1.80;;
4214;SDS011;2121;48.062;7.850;2023-04-23T15:14:25;2.83;;;2.27;;
4214;SDS011;2121;48.062;7.850;2023-04-23T15:16:56;2.07;;;1.97;;
4214;SDS011;2121;48.062;7.850;2023-04-23T15:19:22;2.30;;;1.77;;
4214;SDS011;2121;48.062;7.850;2023-04-23T15:21:48;1.73;;;1.60;;
4214;SDS011;2121;48.062;7.850;2023-04-23T15:24:14;3.43;;;1.93;;
4214;SDS011;2121;48.062;7.850;2023-04-23T15:26:41;3.03;;;2.43;;
4214;SDS011;2121;48.062;7.850;2023-04-23T15:29:07;2.43;;;1.90;;